createdAt,value
2023-02-22T00:02:25.189Z,19.63
2023-02-22T00:04:54.606Z,17.05
2023-02-22T00:07:23.699Z,17.35
2023-02-22T00:09:52.315Z,18.63
2023-02-22T00:12:20.723Z,18.77
2023-02-22T00:14:51.062Z,19.27
2023-02-22T00:17:21.253Z,17.95
2023-02-22T00:19:50.086Z,17.75
2023-02-22T00:22:20.472Z,17.95
2023-02-22T00:24:50.091Z,18.60
2023-02-22T00:27:18.646Z,17.20
2023-02-22T00:29:47.702Z,14.40
2023-02-22T00:32:16.605Z,16.55
2023-02-22T00:34:47.762Z,16.35
2023-02-22T00:37:16.185Z,16.38
2023-02-22T00:39:47.632Z,15.88
2023-02-22T00:42:18.421Z,13.38
2023-02-22T00:44:46.837Z,14.60
2023-02-22T00:47:15.243Z,14.05
2023-02-22T00:49:43.737Z,14.77
2023-02-22T00:52:13.407Z,14.32
2023-02-22T00:54:41.833Z,15.70
2023-02-22T00:57:10.438Z,12.82
2023-02-22T00:59:38.890Z,15.05
2023-02-22T01:02:07.233Z,13.93
2023-02-22T01:04:35.880Z,15.35
2023-02-22T01:07:04.381Z,13.45
2023-02-22T01:09:34.858Z,12.25
2023-02-22T01:12:03.797Z,11.75
2023-02-22T01:14:32.396Z,13.27
2023-02-22T01:17:00.985Z,10.73
2023-02-22T01:19:29.364Z,11.02
2023-02-22T01:21:58.752Z,12.32
2023-02-22T01:24:27.920Z,13.50
2023-02-22T01:26:57.838Z,14.38
2023-02-22T01:29:26.278Z,15.85
2023-02-22T01:31:56.310Z,12.50
2023-02-22T01:34:26.058Z,15.20
2023-02-22T01:36:54.510Z,15.75
2023-02-22T01:39:22.881Z,13.00
2023-02-22T01:41:53.562Z,14.85
2023-02-22T01:44:29.690Z,14.20
2023-02-22T01:47:02.740Z,16.33
2023-02-22T01:49:36.891Z,15.95
2023-02-22T01:52:11.240Z,15.40
2023-02-22T01:54:44.031Z,14.80
2023-02-22T01:57:18.975Z,15.23
2023-02-22T01:59:51.160Z,17.60
2023-02-22T02:02:21.614Z,17.00
2023-02-22T02:04:50.320Z,14.70
2023-02-22T02:07:21.097Z,13.90
2023-02-22T02:09:54.240Z,14.00
2023-02-22T02:12:24.455Z,13.98
2023-02-22T02:14:54.584Z,16.85
2023-02-22T02:17:24.562Z,15.68
2023-02-22T02:20:02.834Z,14.15
2023-02-22T02:22:43.489Z,19.15
2023-02-22T02:25:43.860Z,15.65
2023-02-22T02:28:45.690Z,17.85
2023-02-22T02:31:54.367Z,18.25
2023-02-22T02:34:29.076Z,17.50
2023-02-22T02:37:03.068Z,14.63
2023-02-22T02:39:38.807Z,21.67
2023-02-22T02:44:42.060Z,16.30
2023-02-22T02:47:15.590Z,17.55
2023-02-22T02:49:50.005Z,17.92
2023-02-22T02:52:21.761Z,21.27
2023-02-22T02:54:51.819Z,18.15
2023-02-22T02:57:20.227Z,20.92
2023-02-22T02:59:48.665Z,19.15
2023-02-22T03:02:34.537Z,20.50
2023-02-22T03:05:16.902Z,17.90
2023-02-22T03:07:56.710Z,18.98
2023-02-22T03:10:41.038Z,19.27
2023-02-22T03:13:18.718Z,18.38
2023-02-22T03:15:54.650Z,18.98
2023-02-22T03:18:33.003Z,17.30
2023-02-22T03:21:08.896Z,18.08
2023-02-22T03:23:43.103Z,16.25
2023-02-22T03:26:19.325Z,14.32
2023-02-22T03:28:50.057Z,15.80
2023-02-22T03:31:24.044Z,16.00
2023-02-22T03:34:00.005Z,18.27
2023-02-22T03:36:34.492Z,18.38
2023-02-22T03:39:05.193Z,18.20
2023-02-22T03:41:38.689Z,16.38
2023-02-22T03:44:10.341Z,18.13
2023-02-22T03:46:41.091Z,15.50
2023-02-22T03:49:15.808Z,17.77
2023-02-22T03:51:44.994Z,13.88
2023-02-22T03:54:16.364Z,15.35
2023-02-22T03:56:57.146Z,19.13
2023-02-22T03:59:27.343Z,17.00
2023-02-22T04:01:56.691Z,17.42
2023-02-22T04:04:28.792Z,18.13
2023-02-22T04:06:57.381Z,16.95
2023-02-22T04:09:27.108Z,16.20
2023-02-22T04:11:56.394Z,17.70
2023-02-22T04:14:24.940Z,17.60
2023-02-22T04:16:53.294Z,16.75
2023-02-22T04:19:22.252Z,21.98
2023-02-22T04:21:54.287Z,19.30
2023-02-22T04:24:27.110Z,16.55
2023-02-22T04:26:56.210Z,17.45
2023-02-22T04:29:25.386Z,17.27
2023-02-22T04:31:53.856Z,15.60
2023-02-22T04:34:22.888Z,18.85
2023-02-22T04:36:52.348Z,19.75
2023-02-22T04:39:22.643Z,17.25
2023-02-22T04:41:52.881Z,16.50
2023-02-22T04:44:21.456Z,18.83
2023-02-22T04:46:49.819Z,14.85
2023-02-22T04:49:18.320Z,17.17
2023-02-22T04:51:48.273Z,21.23
2023-02-22T04:54:18.501Z,16.13
2023-02-22T04:56:50.320Z,15.70
2023-02-22T04:59:19.654Z,13.38
2023-02-22T05:01:54.601Z,18.83
2023-02-22T05:04:23.040Z,17.33
2023-02-22T05:06:53.436Z,17.42
2023-02-22T05:09:23.442Z,19.02
2023-02-22T05:11:53.217Z,18.05
2023-02-22T05:14:26.480Z,16.73
2023-02-22T05:16:56.048Z,17.80
2023-02-22T05:19:25.065Z,17.40
2023-02-22T05:21:53.423Z,14.93
2023-02-22T05:24:21.842Z,17.67
2023-02-22T05:26:51.123Z,18.33
2023-02-22T05:29:21.169Z,16.63
2023-02-22T05:31:49.858Z,16.60
2023-02-22T05:34:18.584Z,15.80
2023-02-22T05:36:47.406Z,18.98
2023-02-22T05:39:15.851Z,16.20
2023-02-22T05:41:44.285Z,14.27
2023-02-22T05:44:12.656Z,15.60
2023-02-22T05:46:42.471Z,14.60
2023-02-22T05:49:10.910Z,17.65
2023-02-22T05:51:39.996Z,14.70
2023-02-22T05:54:08.979Z,19.33
2023-02-22T05:56:37.381Z,15.35
2023-02-22T05:59:05.898Z,18.42
2023-02-22T06:01:34.382Z,16.55
2023-02-22T06:04:04.143Z,17.40
2023-02-22T06:06:32.454Z,14.07
2023-02-22T06:09:01.700Z,18.95
2023-02-22T06:11:30.190Z,13.48
2023-02-22T06:13:58.574Z,15.30
2023-02-22T06:16:27.090Z,15.00
2023-02-22T06:18:55.929Z,16.63
2023-02-22T06:21:26.009Z,17.00
2023-02-22T06:23:54.695Z,16.25
2023-02-22T06:26:23.260Z,18.73
2023-02-22T06:28:51.718Z,16.40
2023-02-22T06:31:20.582Z,17.42
2023-02-22T06:33:49.061Z,16.15
2023-02-22T06:36:17.518Z,16.02
2023-02-22T06:38:47.274Z,17.17
2023-02-22T06:41:16.228Z,15.63
2023-02-22T06:43:44.850Z,14.85
2023-02-22T06:46:13.469Z,14.38
2023-02-22T06:48:41.908Z,17.80
2023-02-22T06:51:10.709Z,17.33
2023-02-22T06:53:39.093Z,18.05
2023-02-22T06:56:09.020Z,17.23
2023-02-22T06:58:37.389Z,17.05
2023-02-22T07:01:07.732Z,19.80
2023-02-22T07:03:37.234Z,20.88
2023-02-22T07:06:10.654Z,19.98
2023-02-22T07:08:39.033Z,18.63
2023-02-22T07:11:08.767Z,19.80
2023-02-22T07:13:37.476Z,17.25
2023-02-22T07:16:06.482Z,19.92
2023-02-22T07:18:35.214Z,20.45
2023-02-22T07:21:03.635Z,17.73
2023-02-22T07:23:32.063Z,16.58
2023-02-22T07:26:01.717Z,16.08
2023-02-22T07:28:31.456Z,19.02
2023-02-22T07:31:01.305Z,16.50
2023-02-22T07:33:29.697Z,16.17
2023-02-22T07:35:58.217Z,21.88
2023-02-22T07:38:26.558Z,15.05
2023-02-22T07:40:57.763Z,15.27
2023-02-22T07:43:27.648Z,17.70
2023-02-22T07:45:58.948Z,14.25
2023-02-22T07:48:28.898Z,14.18
2023-02-22T07:50:57.609Z,13.55
2023-02-22T07:53:39.404Z,14.05
2023-02-22T07:56:10.668Z,13.13
2023-02-22T07:58:39.151Z,15.07
2023-02-22T08:01:08.889Z,12.77
2023-02-22T08:03:40.131Z,11.77
2023-02-22T08:06:09.269Z,11.32
2023-02-22T08:08:37.692Z,11.00
2023-02-22T08:11:06.182Z,11.25
2023-02-22T08:13:34.569Z,10.10
2023-02-22T08:16:03.491Z,12.00
2023-02-22T08:18:33.296Z,12.80
2023-02-22T08:21:01.709Z,12.73
2023-02-22T08:23:30.310Z,12.02
2023-02-22T08:25:58.669Z,14.27
2023-02-22T08:28:27.365Z,14.30
2023-02-22T08:30:56.223Z,13.07
2023-02-22T08:33:24.988Z,13.68
2023-02-22T08:35:55.093Z,13.95
2023-02-22T08:38:26.257Z,14.27
2023-02-22T08:41:20.023Z,16.02
2023-02-22T08:43:48.408Z,22.95
2023-02-22T08:46:17.695Z,13.77
2023-02-22T08:48:58.166Z,12.02
2023-02-22T08:51:28.197Z,13.88
2023-02-22T08:53:56.547Z,6.97
2023-02-22T08:56:25.111Z,5.63
2023-02-22T08:59:01.099Z,5.00
2023-02-22T09:01:33.419Z,8.23
2023-02-22T09:04:02.312Z,7.78
2023-02-22T09:06:32.012Z,5.63
2023-02-22T09:09:00.491Z,5.88
2023-02-22T09:11:29.277Z,6.60
2023-02-22T09:13:57.895Z,5.72
2023-02-22T09:16:26.223Z,5.00
2023-02-22T09:18:54.727Z,6.03
2023-02-22T09:21:23.037Z,4.18
2023-02-22T09:23:54.610Z,5.13
2023-02-22T09:26:23.637Z,6.28
2023-02-22T09:28:52.034Z,4.30
2023-02-22T09:31:21.037Z,4.60
2023-02-22T09:33:58.830Z,6.57
2023-02-22T09:36:27.186Z,9.90
2023-02-22T09:38:58.796Z,5.53
2023-02-22T09:41:56.650Z,5.88
2023-02-22T09:44:36.136Z,6.07
2023-02-22T09:47:16.346Z,4.55
2023-02-22T09:49:57.377Z,4.47
2023-02-22T09:52:29.127Z,5.82
2023-02-22T09:55:28.655Z,5.65
2023-02-22T09:57:58.842Z,5.53
2023-02-22T10:00:33.284Z,6.68
2023-02-22T10:03:21.812Z,6.68
2023-02-22T10:05:56.819Z,7.18
2023-02-22T10:11:29.319Z,5.25
2023-02-22T10:14:08.586Z,6.03
2023-02-22T10:16:49.696Z,7.53
2023-02-22T10:19:28.688Z,6.68
2023-02-22T10:22:12.383Z,5.70
2023-02-22T10:24:53.693Z,5.40
2023-02-22T10:27:29.408Z,5.97
2023-02-22T10:30:12.847Z,6.53
2023-02-22T10:32:55.728Z,6.72
2023-02-22T10:35:27.596Z,6.57
2023-02-22T10:38:12.441Z,6.60
2023-02-22T10:40:40.919Z,6.35
2023-02-22T10:43:11.058Z,6.68
2023-02-22T10:45:39.507Z,6.82
2023-02-22T10:48:15.023Z,8.77
2023-02-22T10:50:47.512Z,6.57
2023-02-22T10:53:16.362Z,11.27
2023-02-22T10:56:13.744Z,7.30
2023-02-22T10:58:46.930Z,7.18
2023-02-22T11:01:43.240Z,7.80
2023-02-22T11:04:21.447Z,8.25
2023-02-22T11:07:07.508Z,8.57
2023-02-22T11:09:51.340Z,10.27
2023-02-22T11:12:27.181Z,8.48
2023-02-22T11:14:57.599Z,7.20
2023-02-22T11:17:37.693Z,7.75
2023-02-22T11:20:08.352Z,8.40
2023-02-22T11:22:41.846Z,10.02
2023-02-22T11:25:28.863Z,6.25
2023-02-22T11:28:09.219Z,8.35
2023-02-22T11:30:39.660Z,7.25
2023-02-22T11:33:23.507Z,6.60
2023-02-22T11:35:53.664Z,7.10
2023-02-22T11:38:24.160Z,9.07
2023-02-22T11:41:27.559Z,8.38
2023-02-22T11:44:12.723Z,8.52
2023-02-22T11:46:52.263Z,7.65
2023-02-22T11:49:23.181Z,7.13
2023-02-22T11:52:08.853Z,6.80
2023-02-22T11:54:59.995Z,8.93
2023-02-22T11:57:46.584Z,9.30
2023-02-22T12:00:33.384Z,7.22
2023-02-22T12:03:34.638Z,7.05
2023-02-22T12:06:20.247Z,7.30
2023-02-22T12:09:02.317Z,7.07
2023-02-22T12:11:48.856Z,8.02
2023-02-22T12:14:25.229Z,8.38
2023-02-22T12:17:24.614Z,8.48
2023-02-22T12:19:58.710Z,8.93
2023-02-22T12:22:33.375Z,10.27
2023-02-22T12:25:17.276Z,8.07
2023-02-22T12:27:50.168Z,8.77
2023-02-22T12:30:24.755Z,10.15
2023-02-22T12:33:05.956Z,9.07
2023-02-22T12:35:40.161Z,7.15
2023-02-22T12:38:16.907Z,7.85
2023-02-22T12:40:58.083Z,8.07
2023-02-22T12:43:30.951Z,7.72
2023-02-22T12:46:06.122Z,11.45
2023-02-22T12:51:28.301Z,8.85
2023-02-22T12:54:05.794Z,7.88
2023-02-22T12:56:46.029Z,10.40
2023-02-22T12:59:21.934Z,8.43
2023-02-22T13:01:54.859Z,9.35
2023-02-22T13:04:26.221Z,9.38
2023-02-22T13:07:11.097Z,7.78
2023-02-22T13:10:02.418Z,8.68
2023-02-22T13:12:41.898Z,8.38
2023-02-22T13:15:19.177Z,8.38
2023-02-22T13:18:10.456Z,9.23
2023-02-22T13:20:43.169Z,8.05
2023-02-22T13:23:19.727Z,12.43
2023-02-22T13:25:58.792Z,8.43
2023-02-22T13:28:34.325Z,8.48
2023-02-22T13:31:14.638Z,9.77
2023-02-22T13:34:07.138Z,8.77
2023-02-22T13:36:46.286Z,8.38
2023-02-22T13:39:54.459Z,9.95
2023-02-22T13:42:43.988Z,10.43
2023-02-22T13:45:44.321Z,8.85
2023-02-22T13:48:37.550Z,9.43
2023-02-22T13:51:14.801Z,9.27
2023-02-22T13:53:51.027Z,10.18
2023-02-22T13:56:30.906Z,9.63
2023-02-22T13:59:02.302Z,10.07
2023-02-22T14:01:53.021Z,10.50
2023-02-22T14:04:38.197Z,10.98
2023-02-22T14:07:40.170Z,9.50
2023-02-22T14:10:38.832Z,11.00
2023-02-22T14:13:08.460Z,9.35
2023-02-22T14:15:37.019Z,11.00
2023-02-22T14:18:07.369Z,11.52
2023-02-22T14:20:38.086Z,11.50
2023-02-22T14:23:36.096Z,12.23
2023-02-22T14:26:18.677Z,10.40
2023-02-22T14:29:01.277Z,10.00
2023-02-22T14:31:37.418Z,8.85
2023-02-22T14:34:10.015Z,12.23
2023-02-22T14:36:56.736Z,11.27
2023-02-22T14:39:32.052Z,11.05
2023-02-22T14:42:06.806Z,8.90
2023-02-22T14:44:49.984Z,11.43
2023-02-22T14:47:22.454Z,10.23
2023-02-22T14:49:55.805Z,9.15
2023-02-22T14:52:52.632Z,11.18
2023-02-22T14:55:23.633Z,9.60
2023-02-22T14:58:02.077Z,10.40
2023-02-22T15:00:42.415Z,12.00
2023-02-22T15:03:33.088Z,11.63
2023-02-22T15:06:13.591Z,11.75
2023-02-22T15:08:48.566Z,10.25
2023-02-22T15:11:26.247Z,13.40
2023-02-22T15:14:24.082Z,10.32
2023-02-22T15:16:56.826Z,12.40
2023-02-22T15:19:28.012Z,9.35
2023-02-22T15:22:09.170Z,11.07
2023-02-22T15:24:38.945Z,10.65
2023-02-22T15:27:13.671Z,11.75
2023-02-22T15:29:50.038Z,11.95
2023-02-22T15:32:32.099Z,12.15
2023-02-22T15:35:13.946Z,11.70
2023-02-22T15:38:00.933Z,12.82
2023-02-22T15:40:33.089Z,12.50
2023-02-22T15:43:03.837Z,11.68
2023-02-22T15:45:36.899Z,12.43
2023-02-22T15:48:07.668Z,14.38
2023-02-22T15:50:36.225Z,12.45
2023-02-22T15:53:07.258Z,18.55
2023-02-22T15:55:46.840Z,14.70
2023-02-22T15:58:23.788Z,13.05
2023-02-22T16:01:03.483Z,17.35
2023-02-22T16:03:44.890Z,14.85
2023-02-22T16:06:16.200Z,15.27
2023-02-22T16:08:55.099Z,13.20
2023-02-22T16:11:31.900Z,12.77
2023-02-22T16:14:04.754Z,13.95
2023-02-22T16:16:37.055Z,13.93
2023-02-22T16:19:32.813Z,14.80
2023-02-22T16:22:03.808Z,14.45
2023-02-22T16:24:34.275Z,13.27
2023-02-22T16:27:20.057Z,15.73
2023-02-22T16:32:34.509Z,15.18
2023-02-22T16:35:03.381Z,19.85
2023-02-22T16:37:34.584Z,19.55
2023-02-22T16:40:04.070Z,19.77
2023-02-22T16:42:32.441Z,18.27
2023-02-22T16:45:01.187Z,18.77
2023-02-22T16:47:37.248Z,17.38
2023-02-22T16:50:07.861Z,20.40
2023-02-22T16:52:39.699Z,20.55
2023-02-22T16:55:11.310Z,18.70
2023-02-22T16:57:41.042Z,21.88
2023-02-22T17:00:16.047Z,20.17
2023-02-22T17:02:45.209Z,20.25
2023-02-22T17:05:17.264Z,19.15
2023-02-22T17:07:45.630Z,22.15
2023-02-22T17:10:17.201Z,14.60
2023-02-22T17:12:47.486Z,19.92
2023-02-22T17:15:23.173Z,22.27
2023-02-22T17:17:52.783Z,22.10
2023-02-22T17:20:29.970Z,20.98
2023-02-22T17:22:59.260Z,23.17
2023-02-22T17:25:31.028Z,22.90
2023-02-22T17:27:59.844Z,24.45
2023-02-22T17:30:28.363Z,26.02
2023-02-22T17:33:03.383Z,25.23
2023-02-22T17:35:36.729Z,25.55
2023-02-22T17:38:07.158Z,26.08
2023-02-22T17:40:36.907Z,26.98
2023-02-22T17:43:07.953Z,28.35
2023-02-22T17:45:38.925Z,26.50
2023-02-22T17:48:08.251Z,23.67
2023-02-22T17:50:40.284Z,26.08
2023-02-22T17:53:10.866Z,25.92
2023-02-22T17:55:41.955Z,28.63
2023-02-22T17:58:14.594Z,27.77
2023-02-22T18:00:45.881Z,27.90
2023-02-22T18:03:17.483Z,28.77
2023-02-22T18:05:50.465Z,27.80
2023-02-22T18:08:19.335Z,27.30
2023-02-22T18:10:52.602Z,29.77
2023-02-22T18:13:21.058Z,27.90
2023-02-22T18:15:49.820Z,28.67
2023-02-22T18:18:18.776Z,29.23
2023-02-22T18:20:51.369Z,30.70
2023-02-22T18:23:22.269Z,31.38
2023-02-22T18:26:08.975Z,31.80
2023-02-22T18:28:40.075Z,31.67
2023-02-22T18:31:09.826Z,31.88
2023-02-22T18:33:38.259Z,32.80
2023-02-22T18:36:11.301Z,31.77
2023-02-22T18:38:42.723Z,30.08
2023-02-22T18:41:12.712Z,29.63
2023-02-22T18:43:41.477Z,32.65
2023-02-22T18:46:11.122Z,31.00
2023-02-22T18:48:39.977Z,30.80
2023-02-22T18:51:11.952Z,29.83
2023-02-22T18:53:46.588Z,34.88
2023-02-22T18:56:21.381Z,32.83
2023-02-22T18:58:53.971Z,31.00
2023-02-22T19:01:22.944Z,29.80
2023-02-22T19:03:52.293Z,31.17
2023-02-22T19:06:22.817Z,31.98
2023-02-22T19:08:52.085Z,35.08
2023-02-22T19:11:23.110Z,31.73
2023-02-22T19:13:53.833Z,31.80
2023-02-22T19:16:24.460Z,36.65
2023-02-22T19:18:57.108Z,32.97
2023-02-22T19:21:30.913Z,33.03
2023-02-22T19:24:02.661Z,36.22
2023-02-22T19:26:32.065Z,34.00
2023-02-22T19:29:06.125Z,33.38
2023-02-22T19:31:35.177Z,35.47
2023-02-22T19:34:05.425Z,29.10
2023-02-22T19:36:35.503Z,33.03
2023-02-22T19:39:04.631Z,33.22
2023-02-22T19:41:33.047Z,33.50
2023-02-22T19:44:02.543Z,32.13
2023-02-22T19:46:31.049Z,31.65
2023-02-22T19:48:59.538Z,34.85
2023-02-22T19:51:29.657Z,30.83
2023-02-22T19:54:02.650Z,27.63
2023-02-22T19:56:32.146Z,30.90
2023-02-22T19:59:09.054Z,29.33
2023-02-22T20:01:38.482Z,31.35
2023-02-22T20:04:08.963Z,31.30
2023-02-22T20:06:40.172Z,29.67
2023-02-22T20:09:12.408Z,29.85
2023-02-22T20:11:41.282Z,30.80
2023-02-22T20:14:09.594Z,29.77
2023-02-22T20:16:38.301Z,30.15
2023-02-22T20:19:07.775Z,30.02
2023-02-22T20:21:37.070Z,29.00
2023-02-22T20:24:07.808Z,31.58
2023-02-22T20:26:39.250Z,30.95
2023-02-22T20:29:09.911Z,30.48
2023-02-22T20:31:41.105Z,29.38
2023-02-22T20:34:10.776Z,35.47
2023-02-22T20:36:41.676Z,31.20
2023-02-22T20:39:14.269Z,31.55
2023-02-22T20:41:46.945Z,35.28
2023-02-22T20:44:17.121Z,31.42
2023-02-22T20:46:46.652Z,29.52
2023-02-22T20:49:17.719Z,31.45
2023-02-22T20:51:48.250Z,30.98
2023-02-22T20:54:17.756Z,32.70
2023-02-22T20:56:48.375Z,34.65
2023-02-22T20:59:19.522Z,32.70
2023-02-22T21:01:49.873Z,36.97
2023-02-22T21:04:18.498Z,35.90
2023-02-22T21:06:47.582Z,32.90
2023-02-22T21:09:18.514Z,36.17
2023-02-22T21:11:49.056Z,31.38
2023-02-22T21:14:19.755Z,33.40
2023-02-22T21:16:51.276Z,34.28
2023-02-22T21:19:25.174Z,35.20
2023-02-22T21:21:55.815Z,35.67
2023-02-22T21:24:25.521Z,33.72
2023-02-22T21:26:55.682Z,35.20
2023-02-22T21:29:24.296Z,36.78
2023-02-22T21:31:52.891Z,31.63
2023-02-22T21:34:22.247Z,32.15
2023-02-22T21:36:52.382Z,36.83
2023-02-22T21:39:20.966Z,30.90
2023-02-22T21:41:50.855Z,36.53
2023-02-22T21:44:23.958Z,32.05
2023-02-22T21:46:52.478Z,33.03
2023-02-22T21:49:23.340Z,33.28
2023-02-22T21:51:52.668Z,36.22
2023-02-22T21:54:21.363Z,33.05
2023-02-22T21:56:50.316Z,32.45
2023-02-22T21:59:23.589Z,31.20
2023-02-22T22:01:55.387Z,32.38
2023-02-22T22:04:27.565Z,33.58
2023-02-22T22:06:57.794Z,34.70
2023-02-22T22:09:32.195Z,33.10
2023-02-22T22:12:04.798Z,37.20
2023-02-22T22:14:35.532Z,36.55
2023-02-22T22:17:07.741Z,31.23
2023-02-22T22:19:40.217Z,31.15
2023-02-22T22:22:10.113Z,32.42
2023-02-22T22:24:41.311Z,35.90
2023-02-22T22:27:12.268Z,32.42
2023-02-22T22:29:43.358Z,35.13
2023-02-22T22:32:11.886Z,34.28
2023-02-22T22:34:42.597Z,34.88
2023-02-22T22:37:11.183Z,34.92
2023-02-22T22:39:39.535Z,33.83
2023-02-22T22:42:08.931Z,33.47
2023-02-22T22:44:41.880Z,34.35
2023-02-22T22:47:13.184Z,36.60
2023-02-22T22:49:42.418Z,33.47
2023-02-22T22:52:11.512Z,35.65
2023-02-22T22:54:39.921Z,31.48
2023-02-22T22:57:08.660Z,35.22
2023-02-22T22:59:37.336Z,31.90
2023-02-22T23:02:10.502Z,33.35
2023-02-22T23:04:40.320Z,33.72
2023-02-22T23:07:08.804Z,34.10
2023-02-22T23:09:38.865Z,32.85
2023-02-22T23:12:09.545Z,33.13
2023-02-22T23:14:40.006Z,32.92
2023-02-22T23:17:14.746Z,32.63
2023-02-22T23:19:45.876Z,34.80
2023-02-22T23:22:15.100Z,30.17
2023-02-22T23:24:44.428Z,34.28
2023-02-22T23:27:12.858Z,36.55
2023-02-22T23:29:46.342Z,33.13
2023-02-22T23:32:14.967Z,38.28
2023-02-22T23:34:44.773Z,35.90
2023-02-22T23:37:14.014Z,38.33
2023-02-22T23:39:42.620Z,40.20
2023-02-22T23:42:11.070Z,37.33
2023-02-22T23:44:40.364Z,39.42
2023-02-22T23:47:09.567Z,42.22
2023-02-22T23:49:38.656Z,41.60
2023-02-22T23:52:09.467Z,40.38
2023-02-22T23:54:43.596Z,39.40
2023-02-22T23:57:12.241Z,36.22
2023-02-22T23:59:40.751Z,40.33
